Time;durP1;ratioP1;P1;durP2;ratioP2;P2;SDS_P1;SDS_P2;PMS_P1;PMS_P2;Temp;Humidity;BMP_temperature;BMP_pressure;BME280_temperature;BME280_humidity;BME280_pressure;Samples;Min_cycle;Max_cycle;Signal;HPM_P1;HPM_P2
2022/03/22 00:01:36;;;;;;;10.45;8.15;;;10.70;86.00;;;;;;5010051;28;20046;-82
2022/03/22 00:04:04;;;;;;;10.10;7.25;;;10.60;85.10;;;;;;5007051;28;20073;-81
2022/03/22 00:06:34;;;;;;;10.85;8.05;;;10.60;84.60;;;;;;5007182;28;20050;-82
2022/03/22 00:09:02;;;;;;;11.10;8.40;;;10.60;84.20;;;;;;5009616;28;20412;-82
2022/03/22 00:11:33;;;;;;;11.02;8.68;;;10.50;84.00;;;;;;5004181;28;20771;-82
2022/03/22 00:14:01;;;;;;;8.93;7.43;;;10.30;84.40;;;;;;4994558;28;20072;-83
2022/03/22 00:16:29;;;;;;;10.90;8.38;;;10.20;85.00;;;;;;4996656;28;20042;-82
2022/03/22 00:19:17;;;;;;;11.40;8.20;;;10.20;85.20;;;;;;4981341;28;20757;-83
2022/03/22 00:21:47;;;;;;;10.68;8.40;;;10.30;85.20;;;;;;4972096;28;20042;-82
2022/03/22 00:24:15;;;;;;;12.32;8.18;;;10.10;85.80;;;;;;4986955;28;20058;-82
2022/03/22 00:26:43;;;;;;;10.13;7.75;;;9.90;86.40;;;;;;4988323;28;20064;-82
2022/03/22 00:29:12;;;;;;;10.25;8.52;;;9.60;87.10;;;;;;4982822;28;20150;-82
2022/03/22 00:31:39;;;;;;;11.23;7.88;;;9.70;87.70;;;;;;4969015;28;20105;-82
2022/03/22 00:34:11;;;;;;;9.90;7.93;;;9.60;88.20;;;;;;4971590;28;20062;-83
2022/03/22 00:36:39;;;;;;;10.60;8.02;;;9.70;88.40;;;;;;4970789;28;20054;-82
2022/03/22 00:39:09;;;;;;;11.63;7.75;;;9.70;88.40;;;;;;4996302;28;20101;-82
2022/03/22 00:41:37;;;;;;;10.32;7.60;;;9.60;88.00;;;;;;4989587;28;20038;-81
2022/03/22 00:44:05;;;;;;;9.00;7.45;;;9.60;88.40;;;;;;4975959;28;20049;-82
2022/03/22 00:46:33;;;;;;;10.00;7.68;;;9.60;88.30;;;;;;4972274;28;20042;-82
2022/03/22 00:49:02;;;;;;;9.07;7.03;;;9.60;88.10;;;;;;4994944;28;20039;-82
2022/03/22 00:51:30;;;;;;;8.85;6.93;;;9.70;87.70;;;;;;4988158;28;20077;-82
2022/03/22 00:54:02;;;;;;;8.93;7.07;;;9.70;87.50;;;;;;4972084;28;20055;-82
2022/03/22 00:56:32;;;;;;;11.77;7.22;;;9.50;87.50;;;;;;4970934;28;20053;-81
2022/03/22 01:01:49;;;;;;;8.27;7.17;;;9.40;87.80;;;;;;4987337;28;20133;-82
2022/03/22 01:04:17;;;;;;;10.10;7.57;;;9.20;88.70;;;;;;4996551;28;20239;-82
2022/03/22 01:06:45;;;;;;;9.15;7.07;;;8.80;89.60;;;;;;5003589;28;20559;-81
2022/03/22 01:09:13;;;;;;;10.05;6.82;;;8.70;90.30;;;;;;5011753;28;20060;-82
2022/03/22 01:11:42;;;;;;;9.40;7.15;;;8.60;90.70;;;;;;4971292;28;20046;-82
2022/03/22 01:14:12;;;;;;;11.07;7.03;;;8.50;91.20;;;;;;5002970;28;20078;-82
2022/03/22 01:16:39;;;;;;;8.32;6.32;;;8.40;91.50;;;;;;5003439;28;20080;-82
2022/03/22 01:19:07;;;;;;;9.63;6.63;;;8.60;91.10;;;;;;4973214;28;20042;-82
2022/03/22 01:21:37;;;;;;;9.45;6.65;;;8.80;90.00;;;;;;4989058;28;20504;-83
2022/03/22 01:24:07;;;;;;;8.60;6.15;;;8.70;89.50;;;;;;4980655;28;20431;-82
2022/03/22 01:26:36;;;;;;;9.27;6.53;;;8.70;89.40;;;;;;5004613;28;20148;-76
2022/03/22 01:29:05;;;;;;;8.23;6.18;;;8.70;89.10;;;;;;4986491;28;20089;-77
2022/03/22 01:31:35;;;;;;;8.32;6.40;;;8.70;89.20;;;;;;4974455;28;20058;-77
2022/03/22 01:34:03;;;;;;;10.43;6.43;;;8.60;89.50;;;;;;4970240;28;20042;-77
2022/03/22 01:36:31;;;;;;;8.90;6.32;;;8.60;89.40;;;;;;4989432;28;20050;-78
2022/03/22 01:38:59;;;;;;;8.68;6.22;;;8.70;89.30;;;;;;4969563;28;20038;-77
2022/03/22 01:41:28;;;;;;;9.35;6.03;;;8.80;89.00;;;;;;5025220;28;20443;-78
2022/03/22 01:43:55;;;;;;;11.18;6.90;;;8.80;88.60;;;;;;4970349;28;20042;-77
2022/03/22 01:46:25;;;;;;;8.73;6.63;;;8.70;88.80;;;;;;4993324;28;20057;-77
2022/03/22 01:48:54;;;;;;;7.18;6.00;;;8.60;89.10;;;;;;5002116;28;20104;-78
2022/03/22 01:51:22;;;;;;;7.50;6.00;;;8.70;89.50;;;;;;4988486;28;20042;-77
2022/03/22 01:53:50;;;;;;;8.75;6.05;;;8.80;88.80;;;;;;5001705;28;20042;-78
2022/03/22 01:56:18;;;;;;;7.25;5.68;;;8.80;88.80;;;;;;4987150;28;20053;-78
2022/03/22 01:58:47;;;;;;;9.25;6.30;;;8.90;88.60;;;;;;4985094;28;20535;-76
2022/03/22 02:06:54;;;;;;;9.15;5.75;;;8.70;89.20;;;;;;5004110;28;20058;-77
2022/03/22 02:09:22;;;;;;;9.43;5.97;;;8.60;89.90;;;;;;5020312;28;20092;-78
2022/03/22 02:11:51;;;;;;;8.75;6.15;;;8.50;90.00;;;;;;4990262;28;20468;-78
2022/03/22 02:14:19;;;;;;;8.60;5.93;;;8.60;90.20;;;;;;4990604;28;20046;-77
2022/03/22 02:16:48;;;;;;;8.40;6.22;;;8.40;91.60;;;;;;4986317;28;20042;-78
2022/03/22 02:19:18;;;;;;;8.45;5.95;;;8.10;92.80;;;;;;4992159;28;20058;-77
2022/03/22 02:21:51;;;;;;;9.02;6.60;;;7.90;94.10;;;;;;4986942;28;20046;-77
2022/03/22 02:24:21;;;;;;;7.75;6.03;;;8.10;95.10;;;;;;4991135;28;20427;-78
2022/03/22 02:26:49;;;;;;;9.55;6.47;;;8.30;95.10;;;;;;4986443;28;20138;-77
2022/03/22 02:29:18;;;;;;;7.63;5.35;;;8.40;94.40;;;;;;4990263;28;20137;-76
2022/03/22 02:31:46;;;;;;;8.38;5.63;;;8.40;93.80;;;;;;4985244;28;20053;-76
2022/03/22 02:34:14;;;;;;;8.10;5.50;;;8.30;92.70;;;;;;4973185;28;20038;-78
2022/03/22 02:36:42;;;;;;;6.82;5.60;;;8.20;92.20;;;;;;5013789;28;20054;-77
2022/03/22 02:39:10;;;;;;;7.32;5.53;;;8.30;91.30;;;;;;4972731;28;20034;-78
2022/03/22 02:41:39;;;;;;;10.07;5.95;;;8.30;90.70;;;;;;4979599;28;20043;-77
2022/03/22 02:44:07;;;;;;;8.70;5.72;;;8.30;90.30;;;;;;4998207;28;20039;-77
2022/03/22 02:46:35;;;;;;;8.80;5.75;;;8.40;90.10;;;;;;4967430;28;20041;-78
2022/03/22 02:49:05;;;;;;;7.75;5.93;;;8.40;89.60;;;;;;4973440;28;20074;-77
2022/03/22 02:51:33;;;;;;;6.88;5.13;;;8.50;89.80;;;;;;4982045;28;20058;-77
2022/03/22 02:54:01;;;;;;;8.65;5.53;;;8.40;89.40;;;;;;4980561;28;20046;-77
2022/03/22 02:56:30;;;;;;;8.13;6.07;;;8.30;89.70;;;;;;4979706;28;20043;-76
2022/03/22 02:58:59;;;;;;;7.15;5.38;;;8.40;89.40;;;;;;4976136;28;20051;-77
2022/03/22 03:01:28;;;;;;;6.47;4.93;;;8.40;88.90;;;;;;4996752;28;20588;-77
2022/03/22 03:03:56;;;;;;;9.40;5.88;;;8.20;88.70;;;;;;4968255;28;20039;-77
2022/03/22 03:06:24;;;;;;;8.90;5.32;;;8.40;88.70;;;;;;4965092;28;20070;-78
2022/03/22 03:08:52;;;;;;;8.05;5.53;;;8.40;88.50;;;;;;4966172;28;20575;-77
2022/03/22 03:11:20;;;;;;;7.82;5.55;;;8.50;88.20;;;;;;4998928;28;20046;-78
2022/03/22 03:16:38;;;;;;;7.38;5.32;;;8.30;88.60;;;;;;4960798;28;20129;-78
2022/03/22 03:19:06;;;;;;;8.15;5.10;;;8.40;88.60;;;;;;4984257;28;20082;-78
2022/03/22 03:21:35;;;;;;;6.60;5.30;;;8.30;88.60;;;;;;4963830;28;20042;-78
2022/03/22 03:24:03;;;;;;;8.40;5.35;;;8.30;88.60;;;;;;4964497;28;20074;-77
2022/03/22 03:26:31;;;;;;;8.65;5.63;;;8.40;88.40;;;;;;4997022;28;20054;-79
2022/03/22 03:28:59;;;;;;;6.47;4.88;;;8.40;88.60;;;;;;4982042;28;20117;-78
2022/03/22 03:31:27;;;;;;;8.88;6.13;;;8.30;89.00;;;;;;4965479;28;20785;-78
2022/03/22 03:33:56;;;;;;;7.03;4.97;;;8.30;89.10;;;;;;4982217;28;20042;-77
2022/03/22 03:36:24;;;;;;;7.10;5.90;;;8.20;89.30;;;;;;4982490;28;20066;-77
2022/03/22 03:38:52;;;;;;;6.97;5.55;;;8.20;89.50;;;;;;4995784;28;20042;-78
2022/03/22 03:47:11;;;;;;;9.48;5.63;;;8.10;89.60;;;;;;4968723;28;20053;-78
2022/03/22 03:49:42;;;;;;;6.70;4.82;;;8.10;89.60;;;;;;4996610;28;20141;-77
2022/03/22 03:52:12;;;;;;;8.45;5.40;;;7.80;90.00;;;;;;4964056;28;20069;-77
2022/03/22 03:54:40;;;;;;;8.45;5.80;;;7.90;90.10;;;;;;4965716;28;20122;-77
2022/03/22 03:57:08;;;;;;;8.18;5.28;;;7.50;90.50;;;;;;4980517;28;20493;-78
2022/03/22 03:59:37;;;;;;;8.13;5.40;;;7.50;91.00;;;;;;4967243;28;20046;-78
2022/03/22 04:02:06;;;;;;;7.57;5.72;;;7.60;90.90;;;;;;4997518;28;20050;-77
2022/03/22 04:04:35;;;;;;;9.60;5.40;;;7.50;90.80;;;;;;4985600;28;20053;-77
2022/03/22 04:07:06;;;;;;;8.10;5.93;;;7.60;90.90;;;;;;5014714;28;20134;-77
2022/03/22 04:09:35;;;;;;;7.45;5.72;;;7.60;90.90;;;;;;4982730;28;20047;-77
2022/03/22 04:12:05;;;;;;;7.60;5.88;;;7.60;91.20;;;;;;4964641;28;20074;-77
2022/03/22 04:14:33;;;;;;;8.80;5.68;;;7.70;91.30;;;;;;4965081;28;20474;-77
2022/03/22 04:17:01;;;;;;;9.23;5.55;;;7.70;90.90;;;;;;4996655;28;20146;-79
2022/03/22 04:19:29;;;;;;;7.43;5.35;;;7.50;91.20;;;;;;4981426;28;20141;-77
2022/03/22 04:21:57;;;;;;;7.25;5.53;;;7.50;91.50;;;;;;4976308;28;20042;-77
2022/03/22 04:24:27;;;;;;;9.43;5.63;;;7.30;91.80;;;;;;4967590;28;20109;-77
2022/03/22 04:32:41;;;;;;;9.23;5.72;;;7.00;92.60;;;;;;4961662;28;20441;-77
2022/03/22 04:32:44;;;;;;;8.77;5.22;;;6.80;93.10;;;;;;4965583;28;21344;-77
2022/03/22 04:35:14;;;;;;;8.05;5.68;;;6.70;94.10;;;;;;4965204;28;20055;-77
2022/03/22 04:37:42;;;;;;;7.55;5.70;;;6.80;94.60;;;;;;4977551;28;20544;-77
2022/03/22 04:40:14;;;;;;;7.13;5.28;;;7.00;94.80;;;;;;4986334;28;20065;-78
2022/03/22 04:42:43;;;;;;;9.52;5.43;;;7.00;95.10;;;;;;4982785;28;20116;-78
2022/03/22 04:45:11;;;;;;;7.95;6.07;;;6.90;95.80;;;;;;4972400;28;20046;-78
2022/03/22 04:47:40;;;;;;;9.35;5.00;;;6.80;96.10;;;;;;5002290;28;20078;-77
2022/03/22 04:50:10;;;;;;;8.85;5.25;;;6.80;95.40;;;;;;5022897;28;20054;-79
2022/03/22 04:58:14;;;;;;;8.90;5.60;;;7.00;92.40;;;;;;5004941;28;20574;-79
2022/03/22 05:00:42;;;;;;;9.98;5.50;;;7.10;91.90;;;;;;4966920;28;20042;-78
2022/03/22 05:03:10;;;;;;;8.07;5.05;;;7.20;91.50;;;;;;5004300;28;20065;-78
2022/03/22 05:08:24;;;;;;;7.70;5.23;;;7.20;90.90;;;;;;4988592;28;20046;-78
2022/03/22 05:10:56;;;;;;;9.43;5.28;;;7.30;90.80;;;;;;4987818;28;20297;-79
2022/03/22 05:13:24;;;;;;;7.78;5.80;;;7.40;90.50;;;;;;5005503;28;20077;-79
2022/03/22 05:15:52;;;;;;;10.63;5.65;;;7.30;90.30;;;;;;5003555;28;20042;-78
2022/03/22 05:18:20;;;;;;;7.40;5.20;;;7.30;90.30;;;;;;4973451;28;20483;-79
2022/03/22 05:20:48;;;;;;;6.57;5.10;;;7.30;90.50;;;;;;4990242;28;20034;-82
2022/03/22 05:23:17;;;;;;;6.22;4.82;;;7.30;90.70;;;;;;5011109;28;20077;-82
2022/03/22 05:25:45;;;;;;;7.90;5.22;;;7.30;91.00;;;;;;4986930;28;20095;-82
2022/03/22 05:28:15;;;;;;;8.52;5.30;;;7.30;90.70;;;;;;5020475;28;20054;-82
2022/03/22 05:30:45;;;;;;;8.00;5.28;;;7.40;90.70;;;;;;4999848;28;20050;-83
2022/03/22 05:33:12;;;;;;;8.77;4.88;;;7.40;90.00;;;;;;4998181;28;20042;-82
2022/03/22 05:35:40;;;;;;;7.10;5.22;;;7.50;89.80;;;;;;4993581;28;20050;-82
2022/03/22 05:38:09;;;;;;;7.68;4.68;;;7.50;89.80;;;;;;4999396;28;20928;-83
2022/03/22 05:40:39;;;;;;;9.32;5.10;;;7.50;89.90;;;;;;4996879;28;20177;-83
2022/03/22 05:43:07;;;;;;;9.95;5.38;;;7.60;89.80;;;;;;5006324;28;20038;-82
2022/03/22 05:45:40;;;;;;;8.48;5.22;;;7.50;89.80;;;;;;4990858;28;20141;-82
2022/03/22 05:48:09;;;;;;;7.35;4.93;;;7.60;89.50;;;;;;5010156;28;20084;-82
2022/03/22 05:50:36;;;;;;;7.47;5.10;;;7.60;89.40;;;;;;4976032;28;20058;-82
2022/03/22 05:53:04;;;;;;;6.57;5.07;;;7.70;89.20;;;;;;4990620;28;20456;-82
2022/03/22 05:55:33;;;;;;;8.32;5.20;;;7.70;89.00;;;;;;4992727;28;20388;-82
2022/03/22 05:58:00;;;;;;;7.20;4.95;;;7.70;89.20;;;;;;4989843;28;20112;-82
2022/03/22 06:00:28;;;;;;;5.93;4.82;;;7.80;89.00;;;;;;4993321;28;20129;-82
2022/03/22 06:02:58;;;;;;;9.70;5.03;;;7.80;88.80;;;;;;4991100;28;20130;-82
2022/03/22 06:05:28;;;;;;;7.28;4.93;;;7.80;88.70;;;;;;4996810;28;20050;-83
2022/03/22 06:07:58;;;;;;;9.05;5.32;;;7.90;88.70;;;;;;4968135;28;20043;-82
2022/03/22 06:10:29;;;;;;;9.82;6.10;;;8.10;88.70;;;;;;4997578;28;20403;-82
2022/03/22 06:12:58;;;;;;;8.40;4.72;;;8.10;88.80;;;;;;4996722;28;20046;-82
2022/03/22 06:15:27;;;;;;;9.15;5.20;;;8.00;88.80;;;;;;4961572;28;20566;-82
2022/03/22 06:17:58;;;;;;;7.97;5.10;;;7.90;88.90;;;;;;5015430;28;20516;-82
2022/03/22 06:20:28;;;;;;;6.63;4.70;;;8.00;89.10;;;;;;4988878;28;20381;-82
2022/03/22 06:22:57;;;;;;;8.15;5.45;;;8.00;89.00;;;;;;5006405;28;20060;-82
2022/03/22 06:25:24;;;;;;;6.20;4.93;;;8.00;89.00;;;;;;4977963;28;20044;-82
2022/03/22 06:27:53;;;;;;;9.05;5.30;;;8.00;89.50;;;;;;4996728;28;20073;-82
2022/03/22 06:30:24;;;;;;;7.50;5.68;;;8.10;89.50;;;;;;4989113;28;20049;-82
2022/03/22 06:32:55;;;;;;;10.65;5.80;;;8.10;89.70;;;;;;4990599;28;20153;-82
2022/03/22 06:35:26;;;;;;;10.38;5.50;;;8.10;89.80;;;;;;4974082;28;20045;-83
2022/03/22 06:37:55;;;;;;;11.52;6.15;;;8.20;89.90;;;;;;5011387;28;20057;-82
2022/03/22 06:40:27;;;;;;;9.88;6.10;;;8.20;90.00;;;;;;4975494;28;20419;-83
2022/03/22 06:42:56;;;;;;;9.32;6.75;;;8.20;90.20;;;;;;4990556;28;20050;-82
2022/03/22 06:45:26;;;;;;;9.57;6.38;;;8.30;90.70;;;;;;4973231;28;20054;-82
2022/03/22 06:47:54;;;;;;;9.38;6.43;;;8.30;91.00;;;;;;4994222;28;20043;-82
2022/03/22 06:50:24;;;;;;;7.88;5.95;;;8.30;91.00;;;;;;4972758;28;20400;-83
2022/03/22 06:52:53;;;;;;;11.10;6.25;;;8.40;90.80;;;;;;5006392;28;20074;-83
2022/03/22 06:55:25;;;;;;;8.35;6.15;;;8.50;90.70;;;;;;4980674;28;20042;-82
2022/03/22 06:57:56;;;;;;;7.72;6.45;;;8.60;90.40;;;;;;4982704;28;20145;-82
2022/03/22 07:00:28;;;;;;;8.68;6.60;;;8.60;90.40;;;;;;5010101;28;20492;-83
2022/03/22 07:02:57;;;;;;;9.57;6.90;;;8.70;91.30;;;;;;5004109;28;20038;-83
2022/03/22 07:05:28;;;;;;;13.25;7.22;;;8.80;91.40;;;;;;4982498;28;20042;-83
2022/03/22 07:07:56;;;;;;;9.60;7.10;;;8.80;91.50;;;;;;5002033;28;20038;-83
2022/03/22 07:10:25;;;;;;;10.25;6.90;;;8.90;91.40;;;;;;5012463;28;20038;-82
2022/03/22 07:12:55;;;;;;;11.27;6.68;;;9.00;91.30;;;;;;5003655;28;20042;-82
2022/03/22 07:15:30;;;;;;;10.60;7.07;;;9.00;91.20;;;;;;5003563;28;20100;-83
2022/03/22 07:18:00;;;;;;;10.05;6.97;;;9.10;91.40;;;;;;5006306;28;20557;-82
2022/03/22 07:20:30;;;;;;;9.13;6.22;;;9.20;91.10;;;;;;5005864;28;20057;-82
2022/03/22 07:22:59;;;;;;;8.02;6.63;;;9.40;90.90;;;;;;4972440;28;20050;-83
2022/03/22 07:25:27;;;;;;;7.95;6.22;;;9.40;90.60;;;;;;4970399;28;20404;-82
2022/03/22 07:27:56;;;;;;;10.00;6.60;;;9.50;90.00;;;;;;4970585;28;20042;-82
2022/03/22 07:30:24;;;;;;;10.07;6.63;;;9.60;90.10;;;;;;4974843;28;20546;-81
2022/03/22 07:32:52;;;;;;;9.88;6.97;;;9.60;90.70;;;;;;4971464;28;20049;-82
2022/03/22 07:35:21;;;;;;;10.50;7.22;;;9.70;90.70;;;;;;4986133;28;20050;-82
2022/03/22 07:37:52;;;;;;;8.43;6.50;;;9.80;90.30;;;;;;4973439;28;20070;-81
2022/03/22 07:40:20;;;;;;;10.77;7.35;;;9.90;90.00;;;;;;4985224;28;20038;-82
2022/03/22 07:42:49;;;;;;;9.15;7.43;;;10.10;89.60;;;;;;4987856;28;20486;-82
2022/03/22 07:45:20;;;;;;;12.77;7.25;;;10.20;88.20;;;;;;4989824;28;20060;-83
2022/03/22 07:47:48;;;;;;;7.97;6.63;;;10.30;87.10;;;;;;4970662;28;20101;-81
2022/03/22 07:53:08;;;;;;;;;;;10.60;85.70;;;;;;4987597;28;20046;-82
2022/03/22 07:55:37;;;;;;;10.10;6.43;;;10.70;85.20;;;;;;5006038;28;20362;-82
2022/03/22 07:58:06;;;;;;;10.25;7.28;;;10.90;84.20;;;;;;4975072;28;20050;-83
2022/03/22 08:00:37;;;;;;;11.93;6.55;;;11.00;83.70;;;;;;4991602;28;20049;-83
2022/03/22 08:03:09;;;;;;;8.27;6.35;;;11.10;83.50;;;;;;4988679;28;20050;-83
2022/03/22 08:05:39;;;;;;;8.77;6.82;;;11.20;82.70;;;;;;4993192;28;20034;-84
2022/03/22 08:08:09;;;;;;;9.48;6.82;;;11.30;82.00;;;;;;5003719;28;20082;-85
2022/03/22 08:10:57;;;;;;;12.00;6.80;;;11.40;81.80;;;;;;5007278;28;20131;-79
2022/03/22 08:13:26;;;;;;;10.55;6.78;;;11.50;81.80;;;;;;4983476;28;20050;-81
2022/03/22 08:15:55;;;;;;;10.18;7.18;;;11.60;81.30;;;;;;5002942;28;20046;-79
2022/03/22 08:18:23;;;;;;;9.15;6.22;;;11.70;81.60;;;;;;4989682;28;20518;-82
2022/03/22 08:20:51;;;;;;;8.63;6.50;;;11.80;81.70;;;;;;4971133;28;20051;-82
2022/03/22 08:23:21;;;;;;;8.88;6.15;;;11.80;80.80;;;;;;4987241;28;20165;-80
2022/03/22 08:25:51;;;;;;;9.73;6.00;;;11.90;79.20;;;;;;5010974;28;20080;-83
2022/03/22 08:28:20;;;;;;;12.38;5.72;;;12.00;78.40;;;;;;5008540;28;20042;-83
2022/03/22 08:30:48;;;;;;;10.20;5.57;;;12.10;77.60;;;;;;4992497;28;20046;-84
2022/03/22 08:33:17;;;;;;;7.95;5.80;;;12.10;76.90;;;;;;4980672;28;20125;-82
2022/03/22 08:35:49;;;;;;;11.18;6.65;;;12.30;76.50;;;;;;5014820;28;20578;-84
2022/03/22 08:38:20;;;;;;;10.43;6.25;;;12.50;76.60;;;;;;4988168;28;20058;-84
2022/03/22 08:40:49;;;;;;;8.45;6.03;;;12.50;76.10;;;;;;5008702;28;20034;-83
2022/03/22 08:43:21;;;;;;;10.32;5.80;;;12.50;75.10;;;;;;4990460;28;20045;-82
2022/03/22 08:45:49;;;;;;;10.95;5.95;;;12.60;74.60;;;;;;5009014;28;20039;-82
2022/03/22 08:48:17;;;;;;;10.18;6.32;;;12.60;73.50;;;;;;4977816;28;20951;-82
2022/03/22 08:50:48;;;;;;;7.40;5.80;;;12.60;73.20;;;;;;4988701;28;20126;-83
2022/03/22 08:53:18;;;;;;;10.60;6.00;;;12.70;73.20;;;;;;5006928;28;20170;-82
2022/03/22 08:55:53;;;;;;;7.55;5.68;;;12.70;72.50;;;;;;4976534;28;20050;-82
2022/03/22 08:58:21;;;;;;;7.13;5.10;;;12.70;72.20;;;;;;4994862;28;20046;-83
2022/03/22 09:00:49;;;;;;;10.70;6.50;;;12.70;72.20;;;;;;4977847;28;20079;-83
2022/03/22 09:03:19;;;;;;;9.10;6.25;;;12.80;72.50;;;;;;4990872;28;20065;-83
2022/03/22 09:08:38;;;;;;;9.18;5.90;;;12.80;72.30;;;;;;4993360;28;20050;-83
2022/03/22 09:11:09;;;;;;;7.90;5.50;;;12.90;72.40;;;;;;5006606;28;20047;-84
2022/03/22 09:13:39;;;;;;;9.40;5.45;;;12.90;72.40;;;;;;4974843;28;20050;-84
2022/03/22 09:16:13;;;;;;;8.20;5.15;;;13.00;72.20;;;;;;5006461;28;20046;-84
2022/03/22 09:18:43;;;;;;;8.35;5.50;;;13.10;72.10;;;;;;5007491;28;20073;-83
2022/03/22 09:21:12;;;;;;;9.15;5.55;;;13.20;72.10;;;;;;4994353;28;20085;-83
2022/03/22 09:23:40;;;;;;;7.65;5.45;;;13.30;71.60;;;;;;4991209;28;20056;-83
2022/03/22 09:26:10;;;;;;;7.45;5.35;;;13.30;71.80;;;;;;4990388;28;20058;-84
2022/03/22 09:28:39;;;;;;;7.18;5.28;;;13.40;71.10;;;;;;4992442;28;20744;-85
2022/03/22 09:31:07;;;;;;;7.18;5.20;;;13.40;70.50;;;;;;4990925;28;20488;-85
2022/03/22 09:33:36;;;;;;;9.60;5.13;;;13.50;70.10;;;;;;4979722;28;20042;-84
2022/03/22 09:36:06;;;;;;;6.85;5.70;;;13.70;70.10;;;;;;5031835;28;20385;-83
2022/03/22 09:38:34;;;;;;;8.13;5.15;;;13.90;70.90;;;;;;5001850;28;20061;-82
2022/03/22 09:41:07;;;;;;;6.40;4.45;;;14.10;69.40;;;;;;4991100;28;20046;-83
2022/03/22 09:43:37;;;;;;;7.35;5.10;;;14.10;68.60;;;;;;5008999;28;20113;-84
2022/03/22 09:46:07;;;;;;;6.07;4.68;;;14.00;67.90;;;;;;4974315;28;20050;-82
2022/03/22 09:48:36;;;;;;;7.30;5.45;;;14.20;67.60;;;;;;4992022;28;20129;-82
2022/03/22 09:53:53;;;;;;;6.97;4.75;;;14.20;67.30;;;;;;4990040;28;20050;-82
2022/03/22 09:56:22;;;;;;;5.95;4.15;;;14.40;66.90;;;;;;5003243;28;20092;-82
2022/03/22 09:58:51;;;;;;;4.50;4.00;;;14.60;65.30;;;;;;4982940;28;20404;-82
2022/03/22 10:01:21;;;;;;;5.10;4.35;;;14.60;65.20;;;;;;5017338;28;20052;-80
2022/03/22 10:03:57;;;;;;;7.30;4.25;;;14.60;64.50;;;;;;4974097;28;20057;-81
2022/03/22 10:06:25;;;;;;;6.45;4.20;;;14.90;64.50;;;;;;4996999;28;20051;-81
2022/03/22 10:08:54;;;;;;;6.05;4.30;;;15.00;63.20;;;;;;4972696;28;20049;-80
2022/03/22 10:11:33;;;;;;;4.63;4.07;;;15.00;62.40;;;;;;4975783;28;20058;-82
2022/03/22 10:14:03;;;;;;;4.93;4.25;;;15.10;62.80;;;;;;5009059;28;20137;-80
2022/03/22 10:16:32;;;;;;;5.63;3.85;;;15.30;61.70;;;;;;4989926;28;20073;-81
2022/03/22 10:19:00;;;;;;;4.70;3.83;;;15.20;62.40;;;;;;5001092;28;20111;-81
2022/03/22 10:21:29;;;;;;;5.18;3.67;;;15.20;62.50;;;;;;4972547;28;20115;-77
2022/03/22 10:23:57;;;;;;;4.57;3.58;;;15.30;62.40;;;;;;4975315;28;20045;-85
2022/03/22 10:26:35;;;;;;;7.88;4.80;;;15.50;61.70;;;;;;5008003;28;20058;-78
2022/03/22 10:29:07;;;;;;;5.65;4.20;;;15.70;62.30;;;;;;4973797;28;20088;-79
2022/03/22 10:31:40;;;;;;;5.32;4.38;;;15.80;62.60;;;;;;4998243;28;20061;-76
2022/03/22 10:34:10;;;;;;;4.57;4.03;;;15.90;61.60;;;;;;5008470;28;20042;-79
2022/03/22 10:36:39;;;;;;;5.63;4.40;;;15.90;61.40;;;;;;4997475;28;20058;-77
2022/03/22 10:39:09;;;;;;;6.03;4.32;;;15.90;62.10;;;;;;4984321;28;20109;-77
2022/03/22 10:41:40;;;;;;;4.90;4.20;;;16.00;62.30;;;;;;5000491;28;20515;-79
2022/03/22 10:44:13;;;;;;;5.40;4.65;;;16.10;62.50;;;;;;4979497;28;20074;-79
2022/03/22 10:46:43;;;;;;;7.05;4.90;;;16.10;62.30;;;;;;4971002;28;20047;-80
2022/03/22 10:49:14;;;;;;;5.70;4.22;;;16.20;62.10;;;;;;4985512;28;20133;-80
2022/03/22 10:51:44;;;;;;;5.45;4.35;;;16.30;60.60;;;;;;4985993;28;20089;-81
2022/03/22 10:54:17;;;;;;;4.90;4.18;;;16.30;60.90;;;;;;4969648;28;20047;-80
2022/03/22 10:56:47;;;;;;;4.82;4.30;;;16.20;61.70;;;;;;4984359;28;20046;-79
2022/03/22 10:59:19;;;;;;;4.88;4.25;;;16.20;61.90;;;;;;4984465;28;20134;-78
2022/03/22 11:01:49;;;;;;;5.53;4.93;;;16.30;61.90;;;;;;4981542;28;20533;-79
2022/03/22 11:04:19;;;;;;;6.82;4.55;;;16.50;62.10;;;;;;5014529;28;20479;-78
2022/03/22 11:06:48;;;;;;;6.05;4.70;;;16.30;62.10;;;;;;4966451;28;20043;-79
2022/03/22 11:09:16;;;;;;;6.97;4.80;;;16.50;61.10;;;;;;4968119;28;20051;-79
2022/03/22 11:11:45;;;;;;;8.00;4.95;;;16.60;61.90;;;;;;4967508;28;20066;-79
2022/03/22 11:14:16;;;;;;;6.57;4.60;;;16.70;61.50;;;;;;5005606;28;20058;-78
2022/03/22 11:16:50;;;;;;;8.45;4.97;;;16.70;60.80;;;;;;4999199;28;20058;-79
2022/03/22 11:19:22;;;;;;;8.10;5.13;;;16.60;61.50;;;;;;4996480;28;20949;-79
2022/03/22 11:21:51;;;;;;;7.80;4.78;;;16.60;61.80;;;;;;4988704;28;20496;-78
2022/03/22 11:24:24;;;;;;;5.97;4.80;;;16.50;62.10;;;;;;4972409;28;20097;-79
2022/03/22 11:26:54;;;;;;;6.13;4.57;;;16.40;61.40;;;;;;4985647;28;20047;-80
2022/03/22 11:29:25;;;;;;;5.65;4.90;;;16.70;60.90;;;;;;5000493;28;20066;-80
2022/03/22 11:34:43;;;;;;;6.65;4.75;;;17.10;61.90;;;;;;4973641;28;20046;-80
2022/03/22 11:37:11;;;;;;;6.25;4.85;;;17.40;61.20;;;;;;4979222;28;20054;-80
2022/03/22 11:42:26;;;;;;;6.32;4.57;;;17.30;60.90;;;;;;4987276;28;20096;-79
2022/03/22 11:44:57;;;;;;;6.32;5.22;;;17.50;60.80;;;;;;5003698;28;20112;-80
2022/03/22 11:47:36;;;;;;;6.82;5.20;;;17.60;60.20;;;;;;5001269;28;20085;-79
2022/03/22 11:50:06;;;;;;;6.00;4.80;;;17.70;60.50;;;;;;4984192;28;20048;-79
2022/03/22 11:52:43;;;;;;;5.22;4.65;;;17.70;60.60;;;;;;4992236;28;20056;-80
2022/03/22 11:55:15;;;;;;;5.20;4.38;;;17.60;60.00;;;;;;4990445;28;20038;-80
2022/03/22 11:57:45;;;;;;;6.38;4.32;;;17.20;59.70;;;;;;4987435;28;20586;-80
2022/03/22 12:00:17;;;;;;;5.40;4.63;;;17.20;60.70;;;;;;4972423;28;20054;-79
2022/03/22 12:02:52;;;;;;;5.60;4.72;;;17.40;59.80;;;;;;4970392;28;20072;-80
2022/03/22 12:05:25;;;;;;;5.82;4.78;;;17.60;60.30;;;;;;4986107;28;20062;-79
2022/03/22 12:08:04;;;;;;;6.93;4.55;;;17.80;59.10;;;;;;4997351;28;20054;-79
2022/03/22 12:10:32;;;;;;;6.47;4.70;;;17.90;60.00;;;;;;4984570;28;20046;-79
2022/03/22 12:13:00;;;;;;;5.57;4.68;;;17.80;59.50;;;;;;5002350;28;20414;-80
2022/03/22 12:15:30;;;;;;;5.13;4.40;;;17.70;60.00;;;;;;5010819;28;20518;-81
2022/03/22 12:17:58;;;;;;;6.03;4.55;;;17.80;60.30;;;;;;4994554;28;20046;-82
2022/03/22 12:20:27;;;;;;;5.30;4.40;;;17.90;59.80;;;;;;5011521;28;20093;-82
2022/03/22 12:22:59;;;;;;;6.80;4.38;;;18.20;59.70;;;;;;4989522;28;20046;-82
2022/03/22 12:25:29;;;;;;;4.50;3.95;;;18.20;59.50;;;;;;4989060;28;20370;-82
2022/03/22 12:28:00;;;;;;;5.18;4.65;;;17.90;57.80;;;;;;4987264;28;20089;-82
2022/03/22 12:30:31;;;;;;;6.45;4.43;;;17.80;57.80;;;;;;4997310;28;20077;-82
2022/03/22 12:33:02;;;;;;;6.22;4.22;;;17.80;57.90;;;;;;4988226;28;20497;-82
2022/03/22 12:35:31;;;;;;;6.82;4.82;;;18.20;58.50;;;;;;4971741;28;20038;-82
2022/03/22 12:37:59;;;;;;;4.97;4.38;;;18.10;57.90;;;;;;4988161;28;20064;-82
2022/03/22 12:40:31;;;;;;;4.47;4.07;;;17.90;57.30;;;;;;4972035;28;20042;-82
2022/03/22 12:43:00;;;;;;;5.75;4.43;;;18.00;58.30;;;;;;4971190;28;20502;-81
2022/03/22 12:45:33;;;;;;;4.75;3.95;;;18.40;58.50;;;;;;4994437;28;20050;-81
2022/03/22 12:48:02;;;;;;;6.88;4.68;;;18.40;57.20;;;;;;4981036;28;20385;-81
2022/03/22 12:50:30;;;;;;;5.05;4.53;;;18.60;58.00;;;;;;5002928;28;20035;-81
2022/03/22 12:52:59;;;;;;;5.00;4.30;;;18.90;57.90;;;;;;5002986;28;20054;-81
2022/03/22 12:55:28;;;;;;;5.50;4.47;;;19.00;58.90;;;;;;4973818;28;20058;-82
2022/03/22 12:57:58;;;;;;;5.15;4.63;;;19.00;59.10;;;;;;5000022;28;20685;-83
2022/03/22 13:00:31;;;;;;;5.05;4.50;;;18.80;58.60;;;;;;4983703;28;20162;-82
2022/03/22 13:03:06;;;;;;;5.88;4.57;;;18.60;58.20;;;;;;4998233;28;20047;-82
2022/03/22 13:05:40;;;;;;;5.07;4.53;;;18.80;58.10;;;;;;4986814;28;20145;-83
2022/03/22 13:08:19;;;;;;;6.18;4.63;;;19.00;58.60;;;;;;5007305;28;20066;-83
2022/03/22 13:16:28;;;;;;;5.20;4.22;;;19.30;59.30;;;;;;5002599;28;20130;-81
2022/03/22 13:18:58;;;;;;;5.65;4.32;;;19.50;59.40;;;;;;5000395;28;20058;-81
2022/03/22 13:21:30;;;;;;;6.38;4.70;;;19.70;57.60;;;;;;5002366;28;20061;-81
2022/03/22 13:24:03;;;;;;;4.75;4.25;;;19.70;57.40;;;;;;4976159;28;20061;-81
2022/03/22 13:26:32;;;;;;;5.65;4.85;;;19.70;57.40;;;;;;4976947;28;20137;-81
2022/03/22 13:29:10;;;;;;;5.35;4.32;;;19.70;58.40;;;;;;4993711;28;20222;-81
2022/03/22 13:31:51;;;;;;;5.25;4.18;;;19.60;58.60;;;;;;5006988;28;20057;-81
2022/03/22 13:34:21;;;;;;;5.55;4.88;;;19.60;58.60;;;;;;5005752;28;20129;-81
2022/03/22 13:36:50;;;;;;;9.15;4.47;;;19.70;58.60;;;;;;4990961;28;20105;-81
2022/03/22 13:39:25;;;;;;;9.05;5.20;;;19.70;58.90;;;;;;5006332;28;20054;-81
2022/03/22 13:42:08;;;;;;;6.25;5.10;;;19.80;59.10;;;;;;4993086;28;20046;-82
2022/03/22 13:44:44;;;;;;;5.30;4.68;;;19.80;59.20;;;;;;4990403;28;20098;-78
2022/03/22 13:47:33;;;;;;;6.10;4.50;;;19.90;58.70;;;;;;4993900;28;20282;-80
2022/03/22 13:50:10;;;;;;;6.30;4.82;;;20.00;59.00;;;;;;5004413;28;20046;-81
2022/03/22 13:52:40;;;;;;;6.70;5.10;;;20.00;58.70;;;;;;4976646;28;20790;-80